sensor_id;sensor_type;location;lat;lon;timestamp;P1;durP1;ratioP1;P2;durP2;ratioP2
52318;SDS011;38258;51.148;14.068;2023-06-22T00:02:00;8.88;;;7.40;;
52318;SDS011;38258;51.148;14.068;2023-06-22T00:04:27;9.88;;;7.47;;
52318;SDS011;38258;51.148;14.068;2023-06-22T00:06:54;8.38;;;6.35;;
52318;SDS011;38258;51.148;14.068;2023-06-22T00:09:22;9.60;;;6.88;;
52318;SDS011;38258;51.148;14.068;2023-06-22T00:11:48;10.07;;;7.60;;
52318;SDS011;38258;51.148;14.068;2023-06-22T00:14:15;10.70;;;7.68;;
52318;SDS011;38258;51.148;14.068;2023-06-22T00:16:42;10.82;;;7.50;;
52318;SDS011;38258;51.148;14.068;2023-06-22T00:19:09;10.68;;;8.05;;
52318;SDS011;38258;51.148;14.068;2023-06-22T00:21:37;9.57;;;7.20;;
52318;SDS011;38258;51.148;14.068;2023-06-22T00:24:04;9.95;;;7.80;;
52318;SDS011;38258;51.148;14.068;2023-06-22T00:26:33;10.15;;;7.22;;
52318;SDS011;38258;51.148;14.068;2023-06-22T00:29:00;9.60;;;7.53;;
52318;SDS011;38258;51.148;14.068;2023-06-22T00:31:29;11.02;;;7.90;;
52318;SDS011;38258;51.148;14.068;2023-06-22T00:33:56;9.88;;;8.15;;
52318;SDS011;38258;51.148;14.068;2023-06-22T00:36:22;8.35;;;7.05;;
52318;SDS011;38258;51.148;14.068;2023-06-22T00:38:50;12.35;;;8.80;;
52318;SDS011;38258;51.148;14.068;2023-06-22T00:41:16;9.50;;;6.72;;
52318;SDS011;38258;51.148;14.068;2023-06-22T00:43:45;9.35;;;7.03;;
52318;SDS011;38258;51.148;14.068;2023-06-22T00:46:11;8.50;;;7.05;;
52318;SDS011;38258;51.148;14.068;2023-06-22T00:48:38;9.63;;;7.43;;
52318;SDS011;38258;51.148;14.068;2023-06-22T00:51:07;9.00;;;7.00;;
52318;SDS011;38258;51.148;14.068;2023-06-22T00:53:34;10.15;;;7.43;;
52318;SDS011;38258;51.148;14.068;2023-06-22T00:56:03;8.65;;;6.72;;
52318;SDS011;38258;51.148;14.068;2023-06-22T00:58:31;10.57;;;7.40;;
52318;SDS011;38258;51.148;14.068;2023-06-22T01:00:59;11.70;;;7.60;;
52318;SDS011;38258;51.148;14.068;2023-06-22T01:03:27;9.60;;;7.78;;
52318;SDS011;38258;51.148;14.068;2023-06-22T01:05:55;10.73;;;7.63;;
52318;SDS011;38258;51.148;14.068;2023-06-22T01:08:29;8.13;;;6.78;;
52318;SDS011;38258;51.148;14.068;2023-06-22T01:11:05;10.93;;;7.78;;
52318;SDS011;38258;51.148;14.068;2023-06-22T01:13:35;9.57;;;7.60;;
52318;SDS011;38258;51.148;14.068;2023-06-22T01:16:09;10.32;;;8.10;;
52318;SDS011;38258;51.148;14.068;2023-06-22T01:18:42;10.77;;;8.57;;
52318;SDS011;38258;51.148;14.068;2023-06-22T01:21:11;9.32;;;7.38;;
52318;SDS011;38258;51.148;14.068;2023-06-22T01:23:53;11.27;;;8.13;;
52318;SDS011;38258;51.148;14.068;2023-06-22T01:26:28;11.23;;;8.23;;
52318;SDS011;38258;51.148;14.068;2023-06-22T01:29:05;10.88;;;8.10;;
52318;SDS011;38258;51.148;14.068;2023-06-22T01:31:33;11.20;;;7.95;;
52318;SDS011;38258;51.148;14.068;2023-06-22T01:34:01;10.48;;;7.90;;
52318;SDS011;38258;51.148;14.068;2023-06-22T01:36:31;11.13;;;8.55;;
52318;SDS011;38258;51.148;14.068;2023-06-22T01:38:59;11.02;;;8.55;;
52318;SDS011;38258;51.148;14.068;2023-06-22T01:41:27;11.23;;;8.35;;
52318;SDS011;38258;51.148;14.068;2023-06-22T01:43:56;14.05;;;8.20;;
52318;SDS011;38258;51.148;14.068;2023-06-22T01:46:24;11.45;;;8.60;;
52318;SDS011;38258;51.148;14.068;2023-06-22T01:48:51;11.27;;;8.63;;
52318;SDS011;38258;51.148;14.068;2023-06-22T01:51:21;13.50;;;8.90;;
52318;SDS011;38258;51.148;14.068;2023-06-22T01:53:47;12.93;;;9.45;;
52318;SDS011;38258;51.148;14.068;2023-06-22T01:56:15;12.18;;;9.13;;
52318;SDS011;38258;51.148;14.068;2023-06-22T01:58:45;11.13;;;9.15;;
52318;SDS011;38258;51.148;14.068;2023-06-22T02:01:20;11.10;;;8.35;;
52318;SDS011;38258;51.148;14.068;2023-06-22T02:04:01;10.23;;;8.13;;
52318;SDS011;38258;51.148;14.068;2023-06-22T02:06:31;10.10;;;7.90;;
52318;SDS011;38258;51.148;14.068;2023-06-22T02:09:02;10.88;;;8.52;;
52318;SDS011;38258;51.148;14.068;2023-06-22T02:11:37;12.93;;;8.93;;
52318;SDS011;38258;51.148;14.068;2023-06-22T02:14:06;10.38;;;8.23;;
52318;SDS011;38258;51.148;14.068;2023-06-22T02:16:35;10.98;;;8.65;;
52318;SDS011;38258;51.148;14.068;2023-06-22T02:19:03;9.55;;;7.57;;
52318;SDS011;38258;51.148;14.068;2023-06-22T02:21:33;11.10;;;7.80;;
52318;SDS011;38258;51.148;14.068;2023-06-22T02:24:00;10.32;;;7.85;;
52318;SDS011;38258;51.148;14.068;2023-06-22T02:26:29;10.93;;;8.05;;
52318;SDS011;38258;51.148;14.068;2023-06-22T02:28:57;12.55;;;8.55;;
52318;SDS011;38258;51.148;14.068;2023-06-22T02:31:23;13.02;;;9.43;;
52318;SDS011;38258;51.148;14.068;2023-06-22T02:33:57;13.75;;;9.73;;
52318;SDS011;38258;51.148;14.068;2023-06-22T02:36:24;13.18;;;9.32;;
52318;SDS011;38258;51.148;14.068;2023-06-22T02:38:52;11.88;;;8.27;;
52318;SDS011;38258;51.148;14.068;2023-06-22T02:41:19;12.38;;;9.23;;
52318;SDS011;38258;51.148;14.068;2023-06-22T02:43:47;11.00;;;8.55;;
52318;SDS011;38258;51.148;14.068;2023-06-22T02:46:14;11.02;;;8.50;;
52318;SDS011;38258;51.148;14.068;2023-06-22T02:48:41;15.05;;;10.50;;
52318;SDS011;38258;51.148;14.068;2023-06-22T02:51:10;13.25;;;9.98;;
52318;SDS011;38258;51.148;14.068;2023-06-22T02:53:37;18.58;;;11.05;;
52318;SDS011;38258;51.148;14.068;2023-06-22T02:56:04;11.52;;;8.60;;
52318;SDS011;38258;51.148;14.068;2023-06-22T02:58:33;12.50;;;8.13;;
52318;SDS011;38258;51.148;14.068;2023-06-22T03:01:06;11.35;;;8.35;;
52318;SDS011;38258;51.148;14.068;2023-06-22T03:03:35;11.25;;;8.40;;
52318;SDS011;38258;51.148;14.068;2023-06-22T03:06:02;10.68;;;8.15;;
52318;SDS011;38258;51.148;14.068;2023-06-22T03:08:31;14.35;;;8.50;;
52318;SDS011;38258;51.148;14.068;2023-06-22T03:10:57;10.88;;;8.30;;
52318;SDS011;38258;51.148;14.068;2023-06-22T03:13:24;11.15;;;8.63;;
52318;SDS011;38258;51.148;14.068;2023-06-22T03:15:51;11.73;;;8.75;;
52318;SDS011;38258;51.148;14.068;2023-06-22T03:18:18;16.42;;;8.82;;
52318;SDS011;38258;51.148;14.068;2023-06-22T03:20:44;12.27;;;8.82;;
52318;SDS011;38258;51.148;14.068;2023-06-22T03:23:11;10.85;;;7.93;;
52318;SDS011;38258;51.148;14.068;2023-06-22T03:25:40;9.75;;;7.30;;
52318;SDS011;38258;51.148;14.068;2023-06-22T03:28:09;10.30;;;8.40;;
52318;SDS011;38258;51.148;14.068;2023-06-22T03:30:36;13.63;;;8.93;;
52318;SDS011;38258;51.148;14.068;2023-06-22T03:33:03;10.48;;;8.38;;
52318;SDS011;38258;51.148;14.068;2023-06-22T03:35:32;11.93;;;8.52;;
52318;SDS011;38258;51.148;14.068;2023-06-22T03:37:59;12.50;;;8.90;;
52318;SDS011;38258;51.148;14.068;2023-06-22T03:40:26;11.02;;;8.43;;
52318;SDS011;38258;51.148;14.068;2023-06-22T03:42:54;10.75;;;8.48;;
52318;SDS011;38258;51.148;14.068;2023-06-22T03:45:21;10.32;;;7.45;;
52318;SDS011;38258;51.148;14.068;2023-06-22T03:47:48;12.95;;;9.45;;
52318;SDS011;38258;51.148;14.068;2023-06-22T03:50:15;11.98;;;9.63;;
52318;SDS011;38258;51.148;14.068;2023-06-22T03:52:42;17.55;;;11.85;;
52318;SDS011;38258;51.148;14.068;2023-06-22T03:55:08;16.02;;;12.45;;
52318;SDS011;38258;51.148;14.068;2023-06-22T03:57:35;19.48;;;14.40;;
52318;SDS011;38258;51.148;14.068;2023-06-22T04:00:04;20.17;;;14.93;;
52318;SDS011;38258;51.148;14.068;2023-06-22T04:02:37;19.73;;;13.93;;
52318;SDS011;38258;51.148;14.068;2023-06-22T04:05:04;18.08;;;13.00;;
52318;SDS011;38258;51.148;14.068;2023-06-22T04:07:31;16.88;;;12.77;;
52318;SDS011;38258;51.148;14.068;2023-06-22T04:09:58;17.95;;;13.60;;
52318;SDS011;38258;51.148;14.068;2023-06-22T04:12:24;17.58;;;13.98;;
52318;SDS011;38258;51.148;14.068;2023-06-22T04:14:51;18.63;;;13.55;;
52318;SDS011;38258;51.148;14.068;2023-06-22T04:17:19;17.10;;;12.18;;
52318;SDS011;38258;51.148;14.068;2023-06-22T04:19:46;16.38;;;12.95;;
52318;SDS011;38258;51.148;14.068;2023-06-22T04:22:12;15.25;;;12.48;;
52318;SDS011;38258;51.148;14.068;2023-06-22T04:24:39;16.33;;;13.25;;
52318;SDS011;38258;51.148;14.068;2023-06-22T04:27:06;15.27;;;12.63;;
52318;SDS011;38258;51.148;14.068;2023-06-22T04:29:33;13.85;;;11.68;;
52318;SDS011;38258;51.148;14.068;2023-06-22T04:31:59;15.02;;;11.98;;
52318;SDS011;38258;51.148;14.068;2023-06-22T04:34:32;18.08;;;13.10;;
52318;SDS011;38258;51.148;14.068;2023-06-22T04:36:59;15.75;;;12.60;;
52318;SDS011;38258;51.148;14.068;2023-06-22T04:39:25;13.65;;;11.77;;
52318;SDS011;38258;51.148;14.068;2023-06-22T04:41:52;15.20;;;12.70;;
52318;SDS011;38258;51.148;14.068;2023-06-22T04:44:21;14.27;;;12.20;;
52318;SDS011;38258;51.148;14.068;2023-06-22T04:46:50;15.30;;;12.65;;
52318;SDS011;38258;51.148;14.068;2023-06-22T04:49:19;15.55;;;13.27;;
52318;SDS011;38258;51.148;14.068;2023-06-22T04:51:48;14.25;;;12.70;;
52318;SDS011;38258;51.148;14.068;2023-06-22T04:54:16;15.73;;;12.95;;
52318;SDS011;38258;51.148;14.068;2023-06-22T04:56:43;17.60;;;14.18;;
52318;SDS011;38258;51.148;14.068;2023-06-22T04:59:11;16.83;;;13.30;;
52318;SDS011;38258;51.148;14.068;2023-06-22T05:01:38;16.20;;;13.02;;
52318;SDS011;38258;51.148;14.068;2023-06-22T05:04:05;16.63;;;12.80;;
52318;SDS011;38258;51.148;14.068;2023-06-22T05:06:31;15.88;;;12.60;;
52318;SDS011;38258;51.148;14.068;2023-06-22T05:09:00;16.92;;;13.80;;
52318;SDS011;38258;51.148;14.068;2023-06-22T05:11:28;15.60;;;13.60;;
52318;SDS011;38258;51.148;14.068;2023-06-22T05:13:55;14.98;;;12.68;;
52318;SDS011;38258;51.148;14.068;2023-06-22T05:16:22;15.10;;;12.52;;
52318;SDS011;38258;51.148;14.068;2023-06-22T05:18:51;15.30;;;12.75;;
52318;SDS011;38258;51.148;14.068;2023-06-22T05:21:21;16.30;;;12.88;;
52318;SDS011;38258;51.148;14.068;2023-06-22T05:23:48;15.23;;;13.18;;
52318;SDS011;38258;51.148;14.068;2023-06-22T05:26:16;14.43;;;12.60;;
52318;SDS011;38258;51.148;14.068;2023-06-22T05:28:43;15.23;;;12.85;;
52318;SDS011;38258;51.148;14.068;2023-06-22T05:31:11;15.80;;;12.98;;
52318;SDS011;38258;51.148;14.068;2023-06-22T05:33:38;15.50;;;13.18;;
52318;SDS011;38258;51.148;14.068;2023-06-22T05:36:05;14.73;;;12.93;;
52318;SDS011;38258;51.148;14.068;2023-06-22T05:38:32;13.95;;;12.23;;
52318;SDS011;38258;51.148;14.068;2023-06-22T05:40:58;17.23;;;13.73;;
52318;SDS011;38258;51.148;14.068;2023-06-22T05:43:26;17.58;;;13.63;;
52318;SDS011;38258;51.148;14.068;2023-06-22T05:45:53;15.73;;;13.75;;
52318;SDS011;38258;51.148;14.068;2023-06-22T05:48:20;15.13;;;12.85;;
52318;SDS011;38258;51.148;14.068;2023-06-22T05:50:46;15.40;;;13.55;;
52318;SDS011;38258;51.148;14.068;2023-06-22T05:53:13;16.45;;;13.85;;
52318;SDS011;38258;51.148;14.068;2023-06-22T05:55:40;15.30;;;13.38;;
52318;SDS011;38258;51.148;14.068;2023-06-22T05:58:07;15.25;;;13.35;;
52318;SDS011;38258;51.148;14.068;2023-06-22T06:00:35;15.00;;;13.23;;
52318;SDS011;38258;51.148;14.068;2023-06-22T06:03:02;16.23;;;13.82;;
52318;SDS011;38258;51.148;14.068;2023-06-22T06:05:29;14.60;;;12.73;;
52318;SDS011;38258;51.148;14.068;2023-06-22T06:07:56;14.88;;;12.68;;
52318;SDS011;38258;51.148;14.068;2023-06-22T06:10:22;14.20;;;12.70;;
52318;SDS011;38258;51.148;14.068;2023-06-22T06:12:50;15.43;;;13.00;;
52318;SDS011;38258;51.148;14.068;2023-06-22T06:15:17;14.38;;;12.82;;
52318;SDS011;38258;51.148;14.068;2023-06-22T06:17:48;14.70;;;13.20;;
52318;SDS011;38258;51.148;14.068;2023-06-22T06:20:15;14.40;;;12.93;;
52318;SDS011;38258;51.148;14.068;2023-06-22T06:22:44;14.07;;;12.57;;
52318;SDS011;38258;51.148;14.068;2023-06-22T06:25:10;14.30;;;12.77;;
52318;SDS011;38258;51.148;14.068;2023-06-22T06:27:41;14.35;;;12.43;;
52318;SDS011;38258;51.148;14.068;2023-06-22T06:30:08;13.93;;;11.75;;
52318;SDS011;38258;51.148;14.068;2023-06-22T06:32:35;14.80;;;12.35;;
52318;SDS011;38258;51.148;14.068;2023-06-22T06:35:05;14.75;;;11.90;;
52318;SDS011;38258;51.148;14.068;2023-06-22T06:37:33;13.90;;;11.82;;
52318;SDS011;38258;51.148;14.068;2023-06-22T06:40:01;14.70;;;11.73;;
52318;SDS011;38258;51.148;14.068;2023-06-22T06:42:30;13.07;;;11.63;;
52318;SDS011;38258;51.148;14.068;2023-06-22T06:44:57;13.25;;;11.27;;
52318;SDS011;38258;51.148;14.068;2023-06-22T06:47:23;12.73;;;10.82;;
52318;SDS011;38258;51.148;14.068;2023-06-22T06:49:50;12.93;;;10.98;;
52318;SDS011;38258;51.148;14.068;2023-06-22T06:52:18;15.98;;;11.57;;
52318;SDS011;38258;51.148;14.068;2023-06-22T06:54:46;12.38;;;10.73;;
52318;SDS011;38258;51.148;14.068;2023-06-22T06:57:13;12.10;;;10.80;;
52318;SDS011;38258;51.148;14.068;2023-06-22T06:59:40;13.70;;;11.10;;
52318;SDS011;38258;51.148;14.068;2023-06-22T07:02:07;12.23;;;10.93;;
52318;SDS011;38258;51.148;14.068;2023-06-22T07:04:34;14.02;;;11.77;;
52318;SDS011;38258;51.148;14.068;2023-06-22T07:07:01;15.45;;;11.40;;
52318;SDS011;38258;51.148;14.068;2023-06-22T07:09:29;13.68;;;11.20;;
52318;SDS011;38258;51.148;14.068;2023-06-22T07:11:56;13.18;;;10.88;;
52318;SDS011;38258;51.148;14.068;2023-06-22T07:14:23;14.60;;;11.20;;
52318;SDS011;38258;51.148;14.068;2023-06-22T07:16:50;12.82;;;11.52;;
52318;SDS011;38258;51.148;14.068;2023-06-22T07:19:16;13.20;;;11.80;;
52318;SDS011;38258;51.148;14.068;2023-06-22T07:21:50;14.23;;;11.50;;
52318;SDS011;38258;51.148;14.068;2023-06-22T07:24:17;12.40;;;11.20;;
52318;SDS011;38258;51.148;14.068;2023-06-22T07:26:46;13.32;;;11.93;;
52318;SDS011;38258;51.148;14.068;2023-06-22T07:29:15;13.98;;;11.77;;
52318;SDS011;38258;51.148;14.068;2023-06-22T07:31:41;14.35;;;12.10;;
52318;SDS011;38258;51.148;14.068;2023-06-22T07:34:08;14.27;;;12.35;;
52318;SDS011;38258;51.148;14.068;2023-06-22T07:36:35;14.20;;;12.70;;
52318;SDS011;38258;51.148;14.068;2023-06-22T07:39:02;14.55;;;12.68;;
52318;SDS011;38258;51.148;14.068;2023-06-22T07:41:29;13.85;;;12.45;;
52318;SDS011;38258;51.148;14.068;2023-06-22T07:43:57;15.63;;;12.65;;
52318;SDS011;38258;51.148;14.068;2023-06-22T07:46:23;13.85;;;12.35;;
52318;SDS011;38258;51.148;14.068;2023-06-22T07:48:50;14.50;;;13.00;;
52318;SDS011;38258;51.148;14.068;2023-06-22T07:51:17;15.10;;;12.40;;
52318;SDS011;38258;51.148;14.068;2023-06-22T07:53:44;13.68;;;12.27;;
52318;SDS011;38258;51.148;14.068;2023-06-22T07:56:11;13.90;;;12.05;;
52318;SDS011;38258;51.148;14.068;2023-06-22T07:58:37;13.55;;;12.07;;
52318;SDS011;38258;51.148;14.068;2023-06-22T08:01:05;13.13;;;11.73;;
52318;SDS011;38258;51.148;14.068;2023-06-22T08:03:32;13.40;;;11.90;;
52318;SDS011;38258;51.148;14.068;2023-06-22T08:05:59;12.90;;;11.50;;
52318;SDS011;38258;51.148;14.068;2023-06-22T08:08:25;14.45;;;11.60;;
52318;SDS011;38258;51.148;14.068;2023-06-22T08:10:52;12.73;;;11.43;;
52318;SDS011;38258;51.148;14.068;2023-06-22T08:13:19;12.25;;;11.00;;
52318;SDS011;38258;51.148;14.068;2023-06-22T08:15:45;12.02;;;10.60;;
52318;SDS011;38258;51.148;14.068;2023-06-22T08:18:13;12.70;;;11.40;;
52318;SDS011;38258;51.148;14.068;2023-06-22T08:20:41;12.40;;;10.80;;
52318;SDS011;38258;51.148;14.068;2023-06-22T08:23:08;11.98;;;10.77;;
52318;SDS011;38258;51.148;14.068;2023-06-22T08:25:35;12.15;;;10.95;;
52318;SDS011;38258;51.148;14.068;2023-06-22T08:28:01;11.95;;;10.68;;
52318;SDS011;38258;51.148;14.068;2023-06-22T08:30:28;12.20;;;10.65;;
52318;SDS011;38258;51.148;14.068;2023-06-22T08:32:55;11.60;;;10.50;;
52318;SDS011;38258;51.148;14.068;2023-06-22T08:35:23;11.52;;;10.32;;
52318;SDS011;38258;51.148;14.068;2023-06-22T08:37:50;11.65;;;9.98;;
52318;SDS011;38258;51.148;14.068;2023-06-22T08:40:20;11.02;;;9.93;;
52318;SDS011;38258;51.148;14.068;2023-06-22T08:42:48;11.93;;;10.63;;
52318;SDS011;38258;51.148;14.068;2023-06-22T08:45:15;11.60;;;10.40;;
52318;SDS011;38258;51.148;14.068;2023-06-22T08:47:42;11.63;;;10.30;;
52318;SDS011;38258;51.148;14.068;2023-06-22T08:50:09;11.48;;;10.35;;
52318;SDS011;38258;51.148;14.068;2023-06-22T08:52:38;13.25;;;10.43;;
52318;SDS011;38258;51.148;14.068;2023-06-22T08:55:06;11.80;;;10.57;;
52318;SDS011;38258;51.148;14.068;2023-06-22T08:57:34;13.05;;;10.50;;
52318;SDS011;38258;51.148;14.068;2023-06-22T09:00:03;11.18;;;9.98;;
52318;SDS011;38258;51.148;14.068;2023-06-22T09:02:32;11.50;;;9.98;;
52318;SDS011;38258;51.148;14.068;2023-06-22T09:04:58;10.82;;;9.70;;
52318;SDS011;38258;51.148;14.068;2023-06-22T09:07:26;11.23;;;10.07;;
52318;SDS011;38258;51.148;14.068;2023-06-22T09:09:55;10.57;;;9.35;;
52318;SDS011;38258;51.148;14.068;2023-06-22T09:12:22;11.18;;;10.05;;
52318;SDS011;38258;51.148;14.068;2023-06-22T09:14:51;10.63;;;9.50;;
52318;SDS011;38258;51.148;14.068;2023-06-22T09:17:17;9.70;;;8.80;;
52318;SDS011;38258;51.148;14.068;2023-06-22T09:19:44;10.13;;;9.02;;
52318;SDS011;38258;51.148;14.068;2023-06-22T09:22:11;9.75;;;8.85;;
52318;SDS011;38258;51.148;14.068;2023-06-22T09:24:38;10.15;;;9.07;;
52318;SDS011;38258;51.148;14.068;2023-06-22T09:27:06;9.90;;;8.90;;
52318;SDS011;38258;51.148;14.068;2023-06-22T09:29:33;9.50;;;8.48;;
52318;SDS011;38258;51.148;14.068;2023-06-22T09:32:00;10.52;;;8.88;;
52318;SDS011;38258;51.148;14.068;2023-06-22T09:34:27;10.25;;;8.60;;
52318;SDS011;38258;51.148;14.068;2023-06-22T09:36:56;9.57;;;8.57;;
52318;SDS011;38258;51.148;14.068;2023-06-22T09:39:25;9.45;;;8.43;;
52318;SDS011;38258;51.148;14.068;2023-06-22T09:41:52;9.63;;;8.73;;
52318;SDS011;38258;51.148;14.068;2023-06-22T09:44:20;8.77;;;7.97;;
52318;SDS011;38258;51.148;14.068;2023-06-22T09:46:47;9.57;;;8.38;;
52318;SDS011;38258;51.148;14.068;2023-06-22T09:49:13;9.93;;;8.82;;
52318;SDS011;38258;51.148;14.068;2023-06-22T09:51:40;9.30;;;8.23;;
52318;SDS011;38258;51.148;14.068;2023-06-22T09:54:07;9.18;;;8.25;;
52318;SDS011;38258;51.148;14.068;2023-06-22T09:56:33;9.75;;;8.85;;
52318;SDS011;38258;51.148;14.068;2023-06-22T09:59:00;9.73;;;8.30;;
52318;SDS011;38258;51.148;14.068;2023-06-22T10:01:28;9.57;;;8.35;;
52318;SDS011;38258;51.148;14.068;2023-06-22T10:03:55;9.27;;;8.30;;
52318;SDS011;38258;51.148;14.068;2023-06-22T10:06:22;10.65;;;8.05;;
52318;SDS011;38258;51.148;14.068;2023-06-22T10:08:50;8.73;;;7.85;;
52318;SDS011;38258;51.148;14.068;2023-06-22T10:11:17;8.23;;;7.43;;
52318;SDS011;38258;51.148;14.068;2023-06-22T10:13:43;8.32;;;7.53;;
52318;SDS011;38258;51.148;14.068;2023-06-22T10:16:10;7.97;;;7.18;;
52318;SDS011;38258;51.148;14.068;2023-06-22T10:18:38;8.32;;;7.18;;
52318;SDS011;38258;51.148;14.068;2023-06-22T10:21:05;7.75;;;7.05;;
52318;SDS011;38258;51.148;14.068;2023-06-22T10:23:31;8.32;;;7.50;;
52318;SDS011;38258;51.148;14.068;2023-06-22T10:25:58;7.60;;;6.90;;
52318;SDS011;38258;51.148;14.068;2023-06-22T10:28:25;8.35;;;7.55;;
52318;SDS011;38258;51.148;14.068;2023-06-22T10:30:51;8.25;;;7.43;;
52318;SDS011;38258;51.148;14.068;2023-06-22T10:33:18;9.43;;;7.53;;
52318;SDS011;38258;51.148;14.068;2023-06-22T10:35:47;8.60;;;7.80;;
52318;SDS011;38258;51.148;14.068;2023-06-22T10:38:13;8.23;;;7.43;;
52318;SDS011;38258;51.148;14.068;2023-06-22T10:40:40;8.35;;;7.45;;
52318;SDS011;38258;51.148;14.068;2023-06-22T10:43:06;8.45;;;7.38;;
52318;SDS011;38258;51.148;14.068;2023-06-22T10:45:33;7.97;;;7.18;;
52318;SDS011;38258;51.148;14.068;2023-06-22T10:48:00;8.00;;;7.20;;
52318;SDS011;38258;51.148;14.068;2023-06-22T10:50:26;8.15;;;7.35;;
52318;SDS011;38258;51.148;14.068;2023-06-22T10:52:55;8.18;;;7.38;;
52318;SDS011;38258;51.148;14.068;2023-06-22T10:55:21;8.15;;;7.40;;
52318;SDS011;38258;51.148;14.068;2023-06-22T10:57:48;9.05;;;7.22;;
52318;SDS011;38258;51.148;14.068;2023-06-22T11:00:15;8.40;;;7.28;;
52318;SDS011;38258;51.148;14.068;2023-06-22T11:02:42;8.80;;;7.65;;
52318;SDS011;38258;51.148;14.068;2023-06-22T11:05:09;8.57;;;7.32;;
52318;SDS011;38258;51.148;14.068;2023-06-22T11:07:36;8.40;;;7.50;;
52318;SDS011;38258;51.148;14.068;2023-06-22T11:10:05;9.32;;;8.00;;
52318;SDS011;38258;51.148;14.068;2023-06-22T11:12:33;8.43;;;7.20;;
52318;SDS011;38258;51.148;14.068;2023-06-22T11:15:00;8.57;;;7.70;;
52318;SDS011;38258;51.148;14.068;2023-06-22T11:17:27;10.07;;;7.65;;
52318;SDS011;38258;51.148;14.068;2023-06-22T11:19:53;8.65;;;7.53;;
52318;SDS011;38258;51.148;14.068;2023-06-22T11:22:20;8.80;;;7.90;;
52318;SDS011;38258;51.148;14.068;2023-06-22T11:24:47;8.15;;;7.35;;
52318;SDS011;38258;51.148;14.068;2023-06-22T11:27:15;8.00;;;7.20;;
52318;SDS011;38258;51.148;14.068;2023-06-22T11:29:42;9.65;;;7.90;;
52318;SDS011;38258;51.148;14.068;2023-06-22T11:32:08;8.43;;;7.63;;
52318;SDS011;38258;51.148;14.068;2023-06-22T11:34:35;8.93;;;7.80;;
52318;SDS011;38258;51.148;14.068;2023-06-22T11:37:02;9.32;;;8.05;;
52318;SDS011;38258;51.148;14.068;2023-06-22T11:39:29;8.80;;;7.93;;
52318;SDS011;38258;51.148;14.068;2023-06-22T11:41:55;8.60;;;7.80;;
52318;SDS011;38258;51.148;14.068;2023-06-22T11:44:23;9.98;;;8.00;;
52318;SDS011;38258;51.148;14.068;2023-06-22T11:46:50;9.07;;;8.13;;
52318;SDS011;38258;51.148;14.068;2023-06-22T11:49:17;8.75;;;7.85;;
52318;SDS011;38258;51.148;14.068;2023-06-22T11:51:43;8.70;;;7.80;;
52318;SDS011;38258;51.148;14.068;2023-06-22T11:54:10;9.55;;;8.27;;
52318;SDS011;38258;51.148;14.068;2023-06-22T11:56:37;8.43;;;7.63;;
52318;SDS011;38258;51.148;14.068;2023-06-22T11:59:03;10.30;;;7.97;;
52318;SDS011;38258;51.148;14.068;2023-06-22T12:01:31;8.27;;;7.45;;
52318;SDS011;38258;51.148;14.068;2023-06-22T12:03:58;9.23;;;8.10;;
52318;SDS011;38258;51.148;14.068;2023-06-22T12:06:25;9.35;;;8.00;;
52318;SDS011;38258;51.148;14.068;2023-06-22T12:08:52;8.57;;;7.78;;
52318;SDS011;38258;51.148;14.068;2023-06-22T12:11:18;9.82;;;7.53;;
52318;SDS011;38258;51.148;14.068;2023-06-22T12:13:45;8.70;;;7.70;;
52318;SDS011;38258;51.148;14.068;2023-06-22T12:16:11;9.35;;;7.68;;
52318;SDS011;38258;51.148;14.068;2023-06-22T12:18:40;9.40;;;7.85;;
52318;SDS011;38258;51.148;14.068;2023-06-22T12:21:06;9.00;;;8.10;;
52318;SDS011;38258;51.148;14.068;2023-06-22T12:23:33;8.77;;;7.72;;
52318;SDS011;38258;51.148;14.068;2023-06-22T12:26:00;9.05;;;7.90;;
52318;SDS011;38258;51.148;14.068;2023-06-22T12:28:27;10.05;;;7.68;;
52318;SDS011;38258;51.148;14.068;2023-06-22T12:30:54;9.27;;;7.97;;
52318;SDS011;38258;51.148;14.068;2023-06-22T12:33:20;8.15;;;7.35;;
52318;SDS011;38258;51.148;14.068;2023-06-22T12:35:48;11.93;;;7.97;;
52318;SDS011;38258;51.148;14.068;2023-06-22T12:38:15;8.20;;;7.40;;
52318;SDS011;38258;51.148;14.068;2023-06-22T12:40:42;9.88;;;7.90;;
52318;SDS011;38258;51.148;14.068;2023-06-22T12:43:09;8.70;;;7.80;;
52318;SDS011;38258;51.148;14.068;2023-06-22T12:45:36;8.10;;;7.30;;
52318;SDS011;38258;51.148;14.068;2023-06-22T12:48:02;8.70;;;7.80;;
52318;SDS011;38258;51.148;14.068;2023-06-22T12:50:29;8.55;;;7.68;;
52318;SDS011;38258;51.148;14.068;2023-06-22T12:52:58;9.00;;;7.50;;
52318;SDS011;38258;51.148;14.068;2023-06-22T12:55:25;9.38;;;8.23;;
52318;SDS011;38258;51.148;14.068;2023-06-22T12:57:52;9.20;;;8.20;;
52318;SDS011;38258;51.148;14.068;2023-06-22T13:00:18;8.90;;;8.00;;
52318;SDS011;38258;51.148;14.068;2023-06-22T13:02:45;8.90;;;8.00;;
52318;SDS011;38258;51.148;14.068;2023-06-22T13:05:12;8.82;;;7.93;;
52318;SDS011;38258;51.148;14.068;2023-06-22T13:07:39;8.90;;;8.10;;
52318;SDS011;38258;51.148;14.068;2023-06-22T13:10:08;12.85;;;8.35;;
52318;SDS011;38258;51.148;14.068;2023-06-22T13:12:35;9.27;;;8.02;;
52318;SDS011;38258;51.148;14.068;2023-06-22T13:15:02;9.20;;;8.30;;
52318;SDS011;38258;51.148;14.068;2023-06-22T13:17:29;9.60;;;8.10;;
52318;SDS011;38258;51.148;14.068;2023-06-22T13:19:56;9.13;;;8.18;;
52318;SDS011;38258;51.148;14.068;2023-06-22T13:22:26;9.68;;;8.18;;
52318;SDS011;38258;51.148;14.068;2023-06-22T13:24:55;8.90;;;8.00;;
52318;SDS011;38258;51.148;14.068;2023-06-22T13:27:23;8.88;;;8.02;;
52318;SDS011;38258;51.148;14.068;2023-06-22T13:29:50;9.68;;;7.97;;
52318;SDS011;38258;51.148;14.068;2023-06-22T13:32:17;9.82;;;7.95;;
52318;SDS011;38258;51.148;14.068;2023-06-22T13:34:44;8.52;;;7.63;;
52318;SDS011;38258;51.148;14.068;2023-06-22T13:37:29;9.00;;;8.20;;
52318;SDS011;38258;51.148;14.068;2023-06-22T13:40:16;10.18;;;8.18;;
52318;SDS011;38258;51.148;14.068;2023-06-22T13:43:05;9.95;;;8.25;;
52318;SDS011;38258;51.148;14.068;2023-06-22T13:45:52;8.82;;;7.90;;
52318;SDS011;38258;51.148;14.068;2023-06-22T13:48:39;9.88;;;7.85;;
52318;SDS011;38258;51.148;14.068;2023-06-22T13:51:26;8.63;;;7.68;;
52318;SDS011;38258;51.148;14.068;2023-06-22T13:54:13;9.43;;;7.70;;
52318;SDS011;38258;51.148;14.068;2023-06-22T13:57:00;8.50;;;7.70;;
52318;SDS011;38258;51.148;14.068;2023-06-22T13:59:48;8.82;;;7.93;;
52318;SDS011;38258;51.148;14.068;2023-06-22T14:02:35;8.95;;;8.05;;
52318;SDS011;38258;51.148;14.068;2023-06-22T14:05:22;8.15;;;7.35;;
52318;SDS011;38258;51.148;14.068;2023-06-22T14:08:09;9.10;;;8.20;;
52318;SDS011;38258;51.148;14.068;2023-06-22T14:10:56;8.63;;;7.70;;
52318;SDS011;38258;51.148;14.068;2023-06-22T14:13:43;8.63;;;7.70;;
52318;SDS011;38258;51.148;14.068;2023-06-22T14:16:31;9.20;;;7.93;;
52318;SDS011;38258;51.148;14.068;2023-06-22T14:19:18;9.40;;;8.32;;
52318;SDS011;38258;51.148;14.068;2023-06-22T14:22:05;8.90;;;8.00;;
52318;SDS011;38258;51.148;14.068;2023-06-22T14:24:52;11.80;;;7.70;;
52318;SDS011;38258;51.148;14.068;2023-06-22T14:27:39;9.10;;;8.18;;
52318;SDS011;38258;51.148;14.068;2023-06-22T14:30:26;10.00;;;7.78;;